createdAt,value
2017-09-28T00:00:47.319Z,23.37
2017-09-28T00:03:14.871Z,24.43
2017-09-28T00:05:42.463Z,23.47
2017-09-28T00:08:10.036Z,24.37
2017-09-28T00:10:37.596Z,24.90
2017-09-28T00:13:05.415Z,24.20
2017-09-28T00:15:33.016Z,23.17
2017-09-28T00:18:00.588Z,22.50
2017-09-28T00:20:28.195Z,23.07
2017-09-28T00:22:55.746Z,23.50
2017-09-28T00:25:23.292Z,21.90
2017-09-28T00:27:51.523Z,23.40
2017-09-28T00:30:19.123Z,22.30
2017-09-28T00:32:46.715Z,22.07
2017-09-28T00:35:15.140Z,22.47
2017-09-28T00:37:42.783Z,21.23
2017-09-28T00:40:10.425Z,23.00
2017-09-28T00:42:38.627Z,22.23
2017-09-28T00:45:06.568Z,23.30
2017-09-28T00:47:34.167Z,22.07
2017-09-28T00:50:02.572Z,22.33
2017-09-28T00:52:30.179Z,21.77
2017-09-28T00:54:57.760Z,22.13
2017-09-28T00:57:25.340Z,23.70
2017-09-28T00:59:52.940Z,22.67
2017-09-28T01:02:20.499Z,21.67
2017-09-28T01:04:48.176Z,22.50
2017-09-28T01:07:15.728Z,22.27
2017-09-28T01:09:43.316Z,21.07
2017-09-28T01:12:10.975Z,21.23
2017-09-28T01:14:38.547Z,20.87
2017-09-28T01:17:06.129Z,22.17
2017-09-28T01:19:34.552Z,20.17
2017-09-28T01:22:02.151Z,20.73
2017-09-28T01:24:29.795Z,21.80
2017-09-28T01:26:57.439Z,21.40
2017-09-28T01:29:25.048Z,20.60
2017-09-28T01:31:52.655Z,21.27
2017-09-28T01:34:20.271Z,20.10
2017-09-28T01:36:47.903Z,21.07
2017-09-28T01:39:15.536Z,21.30
2017-09-28T01:41:43.171Z,20.10
2017-09-28T01:44:10.777Z,20.40
2017-09-28T01:46:38.387Z,21.40
2017-09-28T01:49:06.015Z,19.90
2017-09-28T01:51:33.815Z,20.90
2017-09-28T01:54:01.359Z,19.50
2017-09-28T01:56:28.975Z,20.67
2017-09-28T01:58:56.571Z,20.47
2017-09-28T02:01:24.176Z,19.93
2017-09-28T02:03:51.759Z,21.60
2017-09-28T02:06:19.344Z,19.87
2017-09-28T02:08:46.969Z,20.27
2017-09-28T02:11:15.015Z,21.10
2017-09-28T02:13:42.623Z,19.63
2017-09-28T02:16:10.293Z,20.20
2017-09-28T02:18:37.903Z,19.27
2017-09-28T02:21:05.519Z,19.90
2017-09-28T02:23:33.102Z,19.23
2017-09-28T02:26:00.739Z,19.00
2017-09-28T02:28:28.371Z,20.37
2017-09-28T02:30:56.016Z,20.40
2017-09-28T02:33:23.621Z,19.43
2017-09-28T02:35:51.231Z,19.30
2017-09-28T02:38:18.812Z,18.97
2017-09-28T02:40:46.425Z,18.50
2017-09-28T02:43:13.983Z,19.70
2017-09-28T02:45:41.555Z,19.70
2017-09-28T02:48:09.187Z,20.77
2017-09-28T02:50:37.001Z,18.83
2017-09-28T02:53:04.572Z,18.63
2017-09-28T02:55:32.487Z,18.63
2017-09-28T02:58:00.060Z,19.90
2017-09-28T03:00:27.640Z,18.77
2017-09-28T03:02:55.224Z,18.30
2017-09-28T03:05:23.315Z,17.93
2017-09-28T03:07:50.859Z,18.50
2017-09-28T03:10:19.311Z,18.80
2017-09-28T03:12:47.637Z,18.50
2017-09-28T03:15:15.197Z,20.37
2017-09-28T03:17:42.768Z,20.33
2017-09-28T03:20:11.183Z,18.87
2017-09-28T03:22:38.796Z,18.43
2017-09-28T03:25:06.383Z,18.43
2017-09-28T03:27:33.935Z,18.63
2017-09-28T03:30:01.482Z,18.60
2017-09-28T03:32:29.055Z,17.87
2017-09-28T03:34:56.599Z,18.63
2017-09-28T03:37:24.148Z,18.37
2017-09-28T03:39:51.747Z,18.50
2017-09-28T03:42:19.295Z,18.47
2017-09-28T03:44:46.844Z,18.30
2017-09-28T03:47:15.031Z,19.07
2017-09-28T03:49:42.575Z,17.30
2017-09-28T03:52:10.171Z,17.90
2017-09-28T03:54:37.763Z,18.70
2017-09-28T03:57:05.334Z,17.40
2017-09-28T03:59:33.235Z,17.07
2017-09-28T04:02:00.812Z,17.90
2017-09-28T04:04:28.359Z,17.47
2017-09-28T04:06:55.927Z,17.70
2017-09-28T04:09:23.531Z,17.37
2017-09-28T04:11:51.083Z,17.40
2017-09-28T04:14:18.661Z,17.50
2017-09-28T04:16:46.264Z,17.90
2017-09-28T04:19:13.814Z,17.20
2017-09-28T04:21:41.375Z,16.60
2017-09-28T04:24:08.995Z,17.17
2017-09-28T04:26:36.564Z,17.03
2017-09-28T04:29:04.788Z,16.93
2017-09-28T04:31:32.399Z,18.73
2017-09-28T04:33:59.979Z,16.87
2017-09-28T04:36:27.791Z,17.10
2017-09-28T04:38:55.367Z,17.47
2017-09-28T04:41:22.939Z,16.10
2017-09-28T04:43:50.512Z,18.87
2017-09-28T04:46:18.111Z,16.57
2017-09-28T04:48:45.727Z,16.13
2017-09-28T04:51:13.297Z,15.80
2017-09-28T04:53:41.687Z,17.23
2017-09-28T04:56:09.254Z,15.57
2017-09-28T04:58:36.828Z,16.90
2017-09-28T05:01:04.431Z,18.63
2017-09-28T05:03:32.033Z,21.13
2017-09-28T05:05:59.603Z,25.80
2017-09-28T05:08:27.184Z,24.30
2017-09-28T05:10:54.755Z,24.37
2017-09-28T05:13:22.353Z,22.87
2017-09-28T05:15:49.956Z,23.70
2017-09-28T05:18:17.512Z,23.03
2017-09-28T05:20:45.083Z,22.43
2017-09-28T05:23:12.679Z,23.63
2017-09-28T05:25:40.290Z,22.37
2017-09-28T05:28:08.111Z,20.70
2017-09-28T05:30:35.712Z,21.43
2017-09-28T05:33:04.044Z,22.70
2017-09-28T05:35:31.648Z,23.23
2017-09-28T05:37:59.247Z,23.10
2017-09-28T05:40:26.827Z,24.23
2017-09-28T05:42:54.406Z,25.60
2017-09-28T05:45:22.003Z,25.10
2017-09-28T05:47:49.617Z,25.53
2017-09-28T05:50:17.194Z,26.77
2017-09-28T05:52:45.603Z,28.53
2017-09-28T05:55:13.150Z,26.70
2017-09-28T05:57:40.732Z,25.93
2017-09-28T06:00:09.687Z,27.97
2017-09-28T06:02:37.672Z,25.40
2017-09-28T06:05:05.259Z,25.20
2017-09-28T06:07:33.605Z,24.17
2017-09-28T06:10:01.152Z,23.30
2017-09-28T06:12:28.699Z,24.70
2017-09-28T06:14:56.269Z,22.40
2017-09-28T06:17:24.239Z,22.43
2017-09-28T06:19:52.615Z,22.50
2017-09-28T06:22:20.255Z,22.90
2017-09-28T06:24:47.805Z,22.20
2017-09-28T06:27:15.384Z,22.80
2017-09-28T06:29:43.215Z,23.30
2017-09-28T06:32:11.475Z,20.47
2017-09-28T06:34:39.031Z,18.50
2017-09-28T06:37:06.623Z,18.87
2017-09-28T06:39:34.179Z,19.87
2017-09-28T06:42:01.800Z,19.80
2017-09-28T06:44:29.384Z,16.60
2017-09-28T06:46:56.960Z,18.73
2017-09-28T06:49:24.510Z,17.80
2017-09-28T06:51:53.244Z,17.07
2017-09-28T06:54:20.819Z,17.17
2017-09-28T06:56:48.879Z,16.47
2017-09-28T06:59:16.452Z,17.23
2017-09-28T07:01:44.028Z,17.30
2017-09-28T07:04:11.617Z,15.87
2017-09-28T07:06:39.206Z,15.97
2017-09-28T07:09:06.776Z,15.63
2017-09-28T07:11:34.352Z,15.07
2017-09-28T07:14:01.948Z,15.73
2017-09-28T07:16:30.262Z,15.67
2017-09-28T07:18:57.834Z,14.97
2017-09-28T07:21:25.404Z,15.07
2017-09-28T07:23:52.952Z,14.10
2017-09-28T07:26:20.523Z,14.70
2017-09-28T07:28:48.124Z,15.10
2017-09-28T07:31:15.739Z,14.23
2017-09-28T07:33:43.307Z,14.90
2017-09-28T07:36:10.927Z,14.07
2017-09-28T07:38:38.488Z,15.53
2017-09-28T07:41:07.269Z,14.10
2017-09-28T07:43:35.082Z,14.67
2017-09-28T07:46:02.659Z,14.37
2017-09-28T07:48:30.235Z,14.27
2017-09-28T07:50:57.831Z,15.23
2017-09-28T07:53:25.498Z,20.27
2017-09-28T07:55:53.074Z,30.83
2017-09-28T07:58:20.677Z,86.67
2017-09-28T08:00:48.256Z,50.17
2017-09-28T08:03:15.837Z,52.10
2017-09-28T08:05:43.495Z,51.43
2017-09-28T08:08:11.063Z,50.90
2017-09-28T08:10:38.613Z,46.37
2017-09-28T08:13:06.211Z,43.43
2017-09-28T08:15:33.775Z,39.77
2017-09-28T08:18:02.120Z,39.00
2017-09-28T08:20:29.756Z,38.33
2017-09-28T08:22:57.344Z,35.97
2017-09-28T08:25:26.879Z,37.07
2017-09-28T08:27:54.896Z,34.03
2017-09-28T08:30:22.673Z,31.70
2017-09-28T08:32:50.238Z,30.27
2017-09-28T08:35:17.823Z,33.00
2017-09-28T08:37:45.427Z,29.07
2017-09-28T08:40:13.008Z,29.70
2017-09-28T08:42:40.613Z,29.10
2017-09-28T08:45:08.167Z,26.73
2017-09-28T08:47:35.740Z,31.70
2017-09-28T08:50:03.344Z,28.00
2017-09-28T08:52:30.892Z,28.93
2017-09-28T08:54:58.436Z,25.47
2017-09-28T08:57:26.007Z,27.50
2017-09-28T08:59:53.827Z,26.83
2017-09-28T09:02:21.403Z,26.10
2017-09-28T09:04:49.963Z,26.10
2017-09-28T09:07:17.520Z,24.57
2017-09-28T09:09:45.871Z,27.57
2017-09-28T09:12:13.471Z,24.73
2017-09-28T09:14:41.790Z,25.10
2017-09-28T09:17:09.336Z,24.47
2017-09-28T09:19:37.702Z,26.43
2017-09-28T09:22:05.252Z,25.07
2017-09-28T09:24:32.795Z,26.57
2017-09-28T09:27:00.392Z,27.10
2017-09-28T09:29:27.968Z,24.63
2017-09-28T09:31:55.551Z,23.90
2017-09-28T09:34:23.124Z,23.27
2017-09-28T09:36:50.673Z,23.37
2017-09-28T09:39:18.312Z,23.70
2017-09-28T09:41:45.912Z,24.23
2017-09-28T09:44:13.494Z,22.60
2017-09-28T09:46:41.053Z,22.57
2017-09-28T09:49:08.676Z,22.80
2017-09-28T09:51:36.253Z,23.13
2017-09-28T09:54:03.842Z,24.07
2017-09-28T09:56:31.439Z,22.97
2017-09-28T09:58:59.022Z,23.13
2017-09-28T10:01:26.599Z,22.90
2017-09-28T10:03:54.195Z,22.50
2017-09-28T10:06:21.747Z,22.80
2017-09-28T10:08:56.144Z,23.53
2017-09-28T10:11:32.904Z,22.70
2017-09-28T10:14:19.557Z,23.30
2017-09-28T10:16:47.103Z,25.13
2017-09-28T10:19:14.688Z,23.53
2017-09-28T10:21:42.295Z,23.87
2017-09-28T10:24:09.867Z,23.27
2017-09-28T10:26:37.444Z,21.70
2017-09-28T10:29:05.028Z,21.73
2017-09-28T10:31:32.580Z,22.47
2017-09-28T10:34:00.152Z,21.73
2017-09-28T10:36:27.728Z,21.40
2017-09-28T10:38:55.304Z,21.63
2017-09-28T10:41:22.855Z,21.60
2017-09-28T10:43:50.447Z,22.23
2017-09-28T10:46:18.019Z,22.50
2017-09-28T10:48:45.572Z,19.47
2017-09-28T10:51:13.144Z,21.17
2017-09-28T10:53:40.711Z,20.10
2017-09-28T10:56:08.296Z,20.67
2017-09-28T10:58:35.891Z,19.03
2017-09-28T11:01:03.444Z,20.07
2017-09-28T11:03:30.996Z,21.27
2017-09-28T11:05:58.604Z,20.83
2017-09-28T11:08:26.157Z,20.10
2017-09-28T11:10:53.739Z,22.10
2017-09-28T11:13:21.315Z,20.60
2017-09-28T11:15:48.896Z,18.90
2017-09-28T11:18:16.449Z,20.50
2017-09-28T11:20:44.050Z,21.63
2017-09-28T11:23:11.624Z,18.50
2017-09-28T11:25:40.335Z,18.73
2017-09-28T11:28:07.933Z,19.63
2017-09-28T11:30:35.504Z,18.07
2017-09-28T11:33:03.055Z,18.80
2017-09-28T11:35:30.667Z,18.93
2017-09-28T11:37:58.211Z,18.87
2017-09-28T11:40:25.787Z,19.67
2017-09-28T11:42:53.360Z,19.00
2017-09-28T11:45:20.904Z,19.20
2017-09-28T11:47:48.454Z,18.90
2017-09-28T11:50:16.027Z,19.37
2017-09-28T11:52:43.580Z,18.63
2017-09-28T11:55:11.158Z,19.60
2017-09-28T11:57:38.752Z,20.43
2017-09-28T12:00:06.516Z,18.30
2017-09-28T12:02:34.091Z,18.20
2017-09-28T12:05:01.697Z,16.73
2017-09-28T12:07:29.883Z,18.37
2017-09-28T12:09:57.454Z,17.00
2017-09-28T12:12:25.039Z,17.73
2017-09-28T12:14:52.614Z,18.40
2017-09-28T12:17:20.632Z,17.73
2017-09-28T12:19:48.223Z,17.93
2017-09-28T12:22:15.788Z,16.87
2017-09-28T12:24:43.360Z,17.87
2017-09-28T12:27:10.976Z,17.70
2017-09-28T12:29:38.537Z,16.70
2017-09-28T12:32:06.091Z,18.70
2017-09-28T12:34:33.678Z,17.43
2017-09-28T12:39:54.561Z,16.03
2017-09-28T12:42:22.150Z,17.40
2017-09-28T12:44:49.718Z,17.27
2017-09-28T12:47:17.735Z,16.20
2017-09-28T12:49:45.321Z,16.17
2017-09-28T12:52:12.954Z,15.87
2017-09-28T12:54:42.262Z,15.43
2017-09-28T12:57:09.825Z,15.67
2017-09-28T12:59:38.166Z,15.27
2017-09-28T13:02:05.803Z,16.30
2017-09-28T13:04:33.385Z,16.03
2017-09-28T13:07:00.945Z,15.83
2017-09-28T13:09:28.535Z,16.10
2017-09-28T13:11:56.097Z,14.80
2017-09-28T13:14:23.681Z,15.67
2017-09-28T13:16:51.636Z,15.20
2017-09-28T13:19:19.202Z,15.60
2017-09-28T13:21:46.793Z,16.70
2017-09-28T13:24:14.702Z,15.23
2017-09-28T13:26:42.288Z,14.60
2017-09-28T13:29:09.915Z,14.63
2017-09-28T13:31:38.737Z,14.73
2017-09-28T13:34:06.310Z,14.27
2017-09-28T13:36:33.881Z,13.60
2017-09-28T13:39:02.694Z,14.97
2017-09-28T13:41:32.941Z,14.80
2017-09-28T13:44:00.534Z,15.30
2017-09-28T13:46:28.175Z,14.23
2017-09-28T13:48:56.501Z,14.00
2017-09-28T13:51:24.065Z,14.80
2017-09-28T13:53:51.657Z,13.90
2017-09-28T13:56:19.982Z,14.23
2017-09-28T13:58:47.565Z,15.13
2017-09-28T14:01:15.153Z,15.77
2017-09-28T14:03:42.713Z,14.70
2017-09-28T14:06:10.290Z,14.30
2017-09-28T14:08:39.537Z,15.37
2017-09-28T14:11:07.118Z,13.57
2017-09-28T14:13:34.680Z,15.30
2017-09-28T14:16:02.270Z,14.80
2017-09-28T14:18:29.864Z,15.57
2017-09-28T14:20:57.429Z,14.73
2017-09-28T14:23:25.069Z,14.40
2017-09-28T14:25:52.629Z,15.30
2017-09-28T14:28:21.376Z,15.83
2017-09-28T14:30:49.857Z,15.30
2017-09-28T14:33:17.491Z,14.83
2017-09-28T14:35:45.065Z,15.20
2017-09-28T14:38:12.700Z,14.53
2017-09-28T14:40:40.286Z,15.03
2017-09-28T14:43:07.849Z,16.67
2017-09-28T14:45:35.499Z,14.90
2017-09-28T14:48:03.086Z,17.17
2017-09-28T14:50:31.213Z,15.97
2017-09-28T14:52:59.285Z,16.20
2017-09-28T14:55:26.848Z,15.57
2017-09-28T14:57:54.437Z,15.50
2017-09-28T15:00:22.937Z,15.80
2017-09-28T15:02:50.543Z,15.13
2017-09-28T15:05:18.125Z,16.30
2017-09-28T15:07:45.989Z,14.70
2017-09-28T15:10:13.555Z,14.67
2017-09-28T15:12:41.320Z,14.30
2017-09-28T15:15:08.977Z,15.37
2017-09-28T15:17:36.543Z,16.27
2017-09-28T15:20:05.102Z,16.07
2017-09-28T15:22:32.693Z,16.43
2017-09-28T15:25:02.257Z,16.30
2017-09-28T15:27:30.220Z,16.00
2017-09-28T15:29:57.810Z,15.43
2017-09-28T15:32:25.403Z,15.43
2017-09-28T15:34:52.993Z,15.73
2017-09-28T15:37:20.654Z,15.40
2017-09-28T15:39:48.262Z,15.53
2017-09-28T15:42:16.004Z,15.27
2017-09-28T15:44:43.753Z,14.70
2017-09-28T15:47:11.369Z,15.90
2017-09-28T15:49:38.959Z,16.43
2017-09-28T15:52:06.549Z,15.77
2017-09-28T15:54:34.133Z,15.80
2017-09-28T15:57:01.726Z,14.57
2017-09-28T15:59:29.341Z,15.00
2017-09-28T16:01:57.137Z,14.00
2017-09-28T16:04:24.709Z,14.67
2017-09-28T16:06:52.298Z,15.73
2017-09-28T16:09:19.888Z,14.80
2017-09-28T16:11:47.451Z,15.83
2017-09-28T16:14:15.066Z,14.27
2017-09-28T16:16:42.621Z,14.80
2017-09-28T16:19:11.211Z,13.33
2017-09-28T16:21:38.849Z,14.07
2017-09-28T16:24:06.434Z,14.13
2017-09-28T16:26:34.025Z,14.23
2017-09-28T16:29:01.755Z,14.50
2017-09-28T16:31:29.340Z,14.57
2017-09-28T16:33:56.910Z,14.97
2017-09-28T16:36:24.673Z,14.53
2017-09-28T16:38:52.233Z,13.43
2017-09-28T16:41:19.797Z,13.47
2017-09-28T16:43:47.393Z,14.47
2017-09-28T16:46:14.981Z,13.77
2017-09-28T16:48:43.248Z,15.20
2017-09-28T16:51:10.843Z,15.10
2017-09-28T16:53:38.430Z,14.97
2017-09-28T16:56:06.017Z,15.83
2017-09-28T16:58:34.086Z,16.20
2017-09-28T17:01:01.658Z,15.20
2017-09-28T17:03:29.241Z,16.90
2017-09-28T17:05:57.557Z,16.67
2017-09-28T17:08:25.117Z,15.87
2017-09-28T17:10:52.738Z,16.10
2017-09-28T17:13:20.718Z,16.10
2017-09-28T17:15:48.305Z,16.80
2017-09-28T17:18:15.874Z,15.50
2017-09-28T17:20:44.322Z,15.87
2017-09-28T17:23:11.917Z,16.10
2017-09-28T17:25:39.521Z,17.47
2017-09-28T17:28:07.138Z,16.27
2017-09-28T17:30:34.701Z,16.30
2017-09-28T17:33:02.285Z,16.60
2017-09-28T17:35:30.117Z,16.60
2017-09-28T17:37:57.705Z,16.60
2017-09-28T17:40:25.298Z,15.83
2017-09-28T17:42:53.269Z,16.27
2017-09-28T17:45:20.865Z,15.43
2017-09-28T17:47:48.484Z,16.70
2017-09-28T17:50:16.106Z,16.07
2017-09-28T17:52:44.468Z,16.70
2017-09-28T17:55:12.068Z,16.10
2017-09-28T17:57:39.682Z,16.73
2017-09-28T18:00:07.250Z,15.73
2017-09-28T18:02:34.817Z,15.43
2017-09-28T18:05:02.440Z,16.40
2017-09-28T18:07:30.025Z,15.37
2017-09-28T18:09:57.617Z,15.87
2017-09-28T18:12:25.218Z,14.83
2017-09-28T18:14:52.801Z,15.13
2017-09-28T18:17:20.399Z,15.33
2017-09-28T18:19:47.997Z,17.23
2017-09-28T18:22:15.557Z,14.37
2017-09-28T18:24:44.019Z,15.77
2017-09-28T18:27:11.646Z,17.20
2017-09-28T18:29:39.229Z,15.37
2017-09-28T18:32:06.868Z,15.90
2017-09-28T18:34:34.466Z,15.03
2017-09-28T18:37:02.058Z,14.63
2017-09-28T18:39:29.665Z,15.03
2017-09-28T18:41:57.281Z,16.00
2017-09-28T18:44:24.845Z,14.70
2017-09-28T18:46:52.461Z,15.70
2017-09-28T18:49:20.081Z,14.70
2017-09-28T18:51:47.638Z,14.67
2017-09-28T18:54:15.193Z,14.53
2017-09-28T18:56:42.826Z,14.63
2017-09-28T18:59:10.461Z,14.13
2017-09-28T19:01:38.497Z,15.03
2017-09-28T19:04:06.115Z,15.47
2017-09-28T19:06:33.734Z,16.20
2017-09-28T19:09:01.333Z,15.90
2017-09-28T19:11:28.980Z,16.20
2017-09-28T19:13:56.600Z,17.47
2017-09-28T19:16:24.196Z,17.47
2017-09-28T19:18:58.890Z,18.00
2017-09-28T19:21:26.525Z,16.90
2017-09-28T19:23:54.362Z,17.33
2017-09-28T19:26:22.249Z,17.57
2017-09-28T19:28:50.452Z,19.17
2017-09-28T19:31:18.881Z,17.73
2017-09-28T19:33:49.988Z,19.17
2017-09-28T19:36:22.114Z,20.23
2017-09-28T19:38:50.563Z,18.50
2017-09-28T19:41:19.228Z,21.30
2017-09-28T19:43:47.342Z,20.93
2017-09-28T19:46:17.271Z,20.43
2017-09-28T19:48:45.124Z,20.67
2017-09-28T19:51:16.665Z,20.57
2017-09-28T19:53:44.293Z,21.13
2017-09-28T19:56:12.221Z,20.73
2017-09-28T19:58:42.153Z,21.50
2017-09-28T20:01:10.757Z,20.60
2017-09-28T20:03:39.198Z,21.50
2017-09-28T20:06:06.875Z,22.17
2017-09-28T20:08:36.775Z,21.00
2017-09-28T20:11:04.716Z,22.90
2017-09-28T20:13:32.430Z,20.47
2017-09-28T20:16:01.530Z,20.57
2017-09-28T20:18:30.813Z,21.23
2017-09-28T20:20:59.295Z,20.60
2017-09-28T20:23:27.185Z,22.13
2017-09-28T20:25:54.791Z,20.20
2017-09-28T20:28:22.389Z,20.83
2017-09-28T20:30:49.998Z,21.07
2017-09-28T20:33:17.701Z,22.17
2017-09-28T20:35:45.270Z,20.90
2017-09-28T20:38:12.888Z,20.63
2017-09-28T20:40:40.609Z,20.87
2017-09-28T20:43:08.219Z,21.17
2017-09-28T20:45:38.692Z,21.17
2017-09-28T20:48:06.377Z,20.50
2017-09-28T20:50:34.042Z,20.57
2017-09-28T20:53:01.694Z,20.43
2017-09-28T20:55:29.458Z,20.90
2017-09-28T20:57:57.045Z,18.67
2017-09-28T21:00:24.617Z,20.07
2017-09-28T21:02:52.206Z,18.63
2017-09-28T21:05:19.778Z,19.70
2017-09-28T21:07:47.377Z,19.60
2017-09-28T21:10:14.995Z,18.50
2017-09-28T21:12:43.183Z,19.00
2017-09-28T21:15:10.789Z,18.80
2017-09-28T21:17:38.397Z,18.73
2017-09-28T21:20:05.981Z,18.40
2017-09-28T21:22:33.550Z,18.50
2017-09-28T21:25:01.192Z,17.60
2017-09-28T21:27:29.526Z,18.00
2017-09-28T21:29:57.110Z,18.53
2017-09-28T21:32:25.165Z,19.10
2017-09-28T21:34:53.083Z,17.20
2017-09-28T21:37:20.647Z,17.30
2017-09-28T21:39:50.746Z,17.50
2017-09-28T21:42:18.312Z,17.17
2017-09-28T21:44:45.901Z,18.10
2017-09-28T21:47:13.514Z,18.10
2017-09-28T21:49:41.856Z,18.30
2017-09-28T21:52:09.445Z,18.53
2017-09-28T21:54:37.057Z,16.43
2017-09-28T21:57:04.625Z,17.80
2017-09-28T21:59:32.252Z,16.47
2017-09-28T22:01:59.865Z,17.20
2017-09-28T22:04:27.437Z,18.40
2017-09-28T22:06:55.036Z,16.97
2017-09-28T22:09:22.653Z,15.63
2017-09-28T22:11:50.217Z,16.73
2017-09-28T22:14:17.841Z,17.07
2017-09-28T22:16:45.452Z,17.00
2017-09-28T22:19:13.009Z,15.97
2017-09-28T22:21:40.570Z,16.40
2017-09-28T22:24:08.166Z,17.93
2017-09-28T22:26:35.769Z,16.70
2017-09-28T22:29:03.353Z,16.30
2017-09-28T22:31:30.950Z,16.13
2017-09-28T22:33:58.510Z,17.03
2017-09-28T22:36:26.069Z,16.63
2017-09-28T22:38:53.657Z,15.80
2017-09-28T22:41:21.217Z,15.63
2017-09-28T22:43:48.801Z,15.87
2017-09-28T22:46:16.389Z,16.97
2017-09-28T22:48:43.945Z,15.97
2017-09-28T22:51:12.301Z,16.27
2017-09-28T22:53:39.897Z,15.93
2017-09-28T22:56:08.625Z,16.70
2017-09-28T22:58:36.194Z,16.17
2017-09-28T23:01:03.814Z,16.60
2017-09-28T23:03:31.414Z,15.00
2017-09-28T23:05:59.038Z,17.50
2017-09-28T23:08:26.629Z,16.10
2017-09-28T23:10:54.209Z,15.83
2017-09-28T23:13:22.558Z,15.90
2017-09-28T23:15:50.840Z,15.67
2017-09-28T23:18:18.427Z,15.30
2017-09-28T23:20:45.992Z,15.63
2017-09-28T23:23:13.577Z,15.10
2017-09-28T23:25:41.177Z,15.27
2017-09-28T23:28:08.773Z,16.37
2017-09-28T23:30:36.406Z,14.97
2017-09-28T23:33:03.974Z,15.90
2017-09-28T23:35:31.540Z,15.27
2017-09-28T23:37:59.188Z,14.90
2017-09-28T23:40:26.745Z,14.50
2017-09-28T23:42:54.329Z,14.33
2017-09-28T23:45:21.949Z,15.90
2017-09-28T23:47:50.077Z,15.57
2017-09-28T23:50:17.673Z,14.43
2017-09-28T23:52:45.285Z,15.40
2017-09-28T23:55:12.851Z,15.00
2017-09-28T23:57:40.417Z,15.10
